Decoded Metar for EHKD (DE KOOY in NETHERLANDS) (IATA:DHR) | Meteo·Mobile Aviation Weather
aviador You're here:

EHKD Decoded Metar

DE KOOY in NETHERLANDS
Report Time2020-02-22 21:55:00
UTC Time2020-02-22 22:03:22
Flight Rules vfr VFR
Wind250° at 14 kt
W.Decomp.*RWY 21: 10.7 kt HW 9.0 kt RCW
Visibility9999 m
Phenomena:N/A
Clouds:Few 048 Hf
Broken 069 Hf
Overcast 075 Hf
Expected CloudBase > 1,600 ft AGL from Temp-Dew spread
Ceiling6,900 ft
Temp08°C (ISA -7)
Dew Point04°C (76% RH)
AAT1.6°C
QNH1016 hPa
Density Alt-774 ft
Elevation46 ft
Report Wrong Elevation
Raw Report
EHKD 222155Z AUTO 25014KT 9999 FEW048 BKN069 OVC075 08/04 Q1016
BLU=

Extra information for EHKD:More info

Metar Taf Metar & Taf Last 4 Metars F.Rules Stats Wind Profile Meteogram Temp Stats Airport Information Weather charts Add Link Nearby VenuesMetar ALERT Operation Metar Decoded Social comments